This is the latest recevied weather packets stored in our database for station/object I3RKE-10. If no packets are shown the sender has not sent any weather packets the latest 10 day(s).
| Time | Temp. | Humidity | Pressure | Rain* | Wind** | Luminosity | Snow |
|---|---|---|---|---|---|---|---|
| 1777909311 | 35.56° C | 17% | 1008.8 hPa | - | - | - | - |
| 1777906610 | 27.22° C | 32% | 1009 hPa | - | - | - | - |
| 1777904810 | 26.67° C | 34% | 1009.2 hPa | - | - | - | - |
| 1777903909 | 27.78° C | 32% | 1009.4 hPa | - | - | - | - |
| 1777903009 | 27.78° C | 32% | 1009.4 hPa | - | - | - | - |
| 1777901209 | 27.78° C | 27% | 1009.5 hPa | - | - | - | - |
| 1777900309 | 28.33° C | 27% | 1009.7 hPa | - | - | - | - |
| 1777897609 | 28.33° C | 25% | 1010 hPa | - | - | - | - |
| 1777896709 | 28.33° C | 25% | 1010.1 hPa | - | - | - | - |
| 1777895808 | 28.89° C | 25% | 1010.2 hPa | - | - | - | - |
| 1777894008 | 27.78° C | 26% | 1010.4 hPa | - | - | - | - |
| 1777893108 | 26.11° C | 27% | 1010.6 hPa | - | - | - | - |
| 1777892208 | 27.78° C | 26% | 1010.8 hPa | - | - | - | - |
| 1777889508 | 25.56° C | 27% | 1011.1 hPa | - | - | - | - |
| 1777888608 | 25° C | 30% | 1011.2 hPa | - | - | - | - |
| 1777886807 | 23.89° C | 30% | 1011.4 hPa | - | - | - | - |
| 1777885907 | 23.89° C | 31% | 1011.5 hPa | - | - | - | - |
| 1777885007 | 23.89° C | 30% | 1011.4 hPa | - | - | - | - |
| 1777884107 | 22.22° C | 33% | 1011.7 hPa | - | - | - | - |
| 1777883207 | 22.78° C | 34% | 1011.6 hPa | - | - | - | - |
| 1777882307 | 22.22° C | 35% | 1011.6 hPa | - | - | - | - |
| 1777881407 | 20.56° C | 39% | 1011.6 hPa | - | - | - | - |
| 1777880504 | 20.56° C | 41% | 1011.5 hPa | - | - | - | - |
| 1777879604 | 20° C | 42% | 1011.4 hPa | - | - | - | - |
| 1777878704 | 19.44° C | 43% | 1011.4 hPa | - | - | - | - |
* Rain since midnight (hover to see other rain measurements)
** Current wind speed in m/s (hover to see current wind gust speed)